Terminal Aerodrome Forecast
Issued by NWS

Home | Current Version | Previous Version | Text Only | Print | Product List | Glossary On
Versions: 1 2 3 4 5 6 7 8 9 10 11 12 13 14 15 16 17 18 19 20 21 22 23
000
FTUS45 KTWC 291700 RRA
TAFOLS
TAF
KOLS 291740Z 2918/3018 08011KT P6SM BKN090 OVC180
     FM291900 16010G18KT P6SM BKN090 OVC140
     FM292100 13009KT P6SM VCSH BKN060 OVC110
     FM300200 15009KT P6SM -SHRA FEW015 BKN025 OVC060
     FM300600 11008KT 6SM -SHRA BR SCT010 BKN020 OVC040=

USA.gov is the U.S. government's official web portal to all federal, state and local government web resources and services.